Time;durP1;ratioP1;P1;durP2;ratioP2;P2;SDS_P1;SDS_P2;PMS_P1;PMS_P2;Temp;Humidity;BMP_temperature;BMP_pressure;BME280_temperature;BME280_humidity;BME280_pressure;Samples;Min_cycle;Max_cycle;Signal;HPM_P1;HPM_P2
2022/08/01 00:00:13;;;;;;;5.72;3.28;;;17.90;99.90;;;;;;5135577;27;20043;-76
2022/08/01 00:02:40;;;;;;;4.82;3.05;;;17.80;99.90;;;;;;5135479;27;20046;-76
2022/08/01 00:05:07;;;;;;;5.25;3.30;;;17.70;99.90;;;;;;5135302;27;20582;-76
2022/08/01 00:07:36;;;;;;;7.47;3.45;;;18.00;99.90;;;;;;5135076;27;20043;-75
2022/08/01 00:10:04;;;;;;;5.68;2.95;;;17.70;99.90;;;;;;5135539;27;20046;-78
2022/08/01 00:12:30;;;;;;;4.80;2.90;;;17.80;99.90;;;;;;5135247;27;20058;-76
2022/08/01 00:14:55;;;;;;;;;;;17.80;99.90;;;;;;5135592;27;20050;-77
2022/08/01 00:17:21;;;;;;;7.72;3.20;;;17.70;99.90;;;;;;5135105;27;19998;-75
2022/08/01 00:19:47;;;;;;;6.93;3.20;;;17.80;99.90;;;;;;5134964;27;20086;-77
2022/08/01 00:22:12;;;;;;;7.38;3.05;;;17.70;99.90;;;;;;5135309;27;20505;-79
2022/08/01 00:24:38;;;;;;;7.32;2.92;;;17.80;99.90;;;;;;5150187;27;20038;-76
2022/08/01 00:27:03;;;;;;;;;;;17.70;99.90;;;;;;5155561;27;20126;-76
2022/08/01 00:29:29;;;;;;;7.47;3.70;;;17.50;99.90;;;;;;5155653;27;19923;-74
2022/08/01 00:31:55;;;;;;;8.88;3.72;;;17.60;99.90;;;;;;5155644;27;20047;-75
2022/08/01 00:34:21;;;;;;;5.60;3.50;;;17.80;99.90;;;;;;5155388;27;20517;-76
2022/08/01 00:36:46;;;;;;;9.18;4.55;;;17.70;99.90;;;;;;5155375;27;20042;-76
2022/08/01 00:39:12;;;;;;;9.30;4.15;;;17.70;99.90;;;;;;5137420;27;20501;-76
2022/08/01 00:41:38;;;;;;;8.38;3.35;;;17.80;99.90;;;;;;5155513;27;20466;-75
2022/08/01 00:44:07;;;;;;;5.88;2.85;;;17.90;99.90;;;;;;5155295;27;20039;-76
2022/08/01 00:46:33;;;;;;;6.72;2.40;;;17.60;99.90;;;;;;5155273;27;20054;-73
2022/08/01 00:48:59;;;;;;;6.20;2.40;;;17.70;99.90;;;;;;5154988;27;20038;-74
2022/08/01 00:51:26;;;;;;;7.65;2.60;;;17.60;99.90;;;;;;5155124;27;20390;-75
2022/08/01 00:53:52;;;;;;;6.82;2.05;;;17.40;99.90;;;;;;5154962;27;20155;-74
2022/08/01 00:56:20;;;;;;;4.70;1.80;;;17.20;99.90;;;;;;5155274;27;20055;-76
2022/08/01 00:58:47;;;;;;;4.05;2.03;;;17.10;99.90;;;;;;5155042;27;20057;-75
2022/08/01 01:01:13;;;;;;;6.40;2.08;;;17.10;99.90;;;;;;5154996;27;20504;-75
2022/08/01 01:03:39;;;;;;;7.68;3.03;;;17.20;99.90;;;;;;5154547;27;20402;-74
2022/08/01 01:06:33;;;;;;;10.77;2.97;;;17.00;99.90;;;;;;5155122;27;20050;-74
2022/08/01 01:09:10;;;;;;;11.52;3.78;;;17.30;99.90;;;;;;5154862;27;20489;-73
2022/08/01 01:11:49;;;;;;;7.10;2.80;;;17.20;99.90;;;;;;5154718;27;20500;-74
2022/08/01 01:14:26;;;;;;;5.60;2.30;;;17.60;99.90;;;;;;5154640;27;20043;-74
2022/08/01 01:16:54;;;;;;;7.85;2.22;;;17.10;99.90;;;;;;5154845;27;20042;-79
2022/08/01 01:19:25;;;;;;;10.05;2.38;;;17.40;99.90;;;;;;5154531;27;20088;-75
2022/08/01 01:22:33;;;;;;;11.52;3.00;;;17.20;99.90;;;;;;5136144;27;20038;-75
2022/08/01 01:25:07;;;;;;;12.52;2.78;;;17.00;99.90;;;;;;5115294;27;20573;-77
2022/08/01 01:27:54;;;;;;;10.25;2.80;;;17.40;99.90;;;;;;5154758;27;20049;-74
2022/08/01 01:30:22;;;;;;;11.13;2.53;;;17.10;99.90;;;;;;5154427;27;20494;-75
2022/08/01 01:32:51;;;;;;;8.45;2.47;;;17.30;99.90;;;;;;5154063;27;20050;-77
2022/08/01 01:35:28;;;;;;;7.50;2.60;;;17.20;99.90;;;;;;5154189;27;20490;-74
2022/08/01 01:38:18;;;;;;;18.98;4.22;;;17.30;99.90;;;;;;5154441;27;20505;-74
2022/08/01 01:40:46;;;;;;;8.40;3.80;;;17.30;99.90;;;;;;5154326;27;20066;-74
2022/08/01 01:43:13;;;;;;;18.83;4.45;;;16.90;99.90;;;;;;5154334;27;20084;-74
2022/08/01 01:45:40;;;;;;;11.00;4.28;;;17.00;99.90;;;;;;5136362;27;20482;-75
2022/08/01 01:48:07;;;;;;;15.13;4.15;;;17.50;99.90;;;;;;5135316;27;20386;-74
2022/08/01 01:50:34;;;;;;;11.95;4.65;;;16.90;99.90;;;;;;5154074;27;20095;-74
2022/08/01 01:53:02;;;;;;;16.00;4.00;;;16.50;99.90;;;;;;5153996;27;20047;-76
2022/08/01 01:55:29;;;;;;;15.38;4.32;;;16.60;99.90;;;;;;5154010;27;20113;-74
2022/08/01 01:57:56;;;;;;;18.23;5.22;;;17.00;99.90;;;;;;5153944;27;20094;-73
2022/08/01 02:00:23;;;;;;;13.45;4.60;;;17.00;99.90;;;;;;5153990;27;20192;-74
2022/08/01 02:02:51;;;;;;;14.35;5.00;;;17.00;99.90;;;;;;5153673;27;20425;-73
2022/08/01 02:05:18;;;;;;;16.50;5.38;;;16.90;99.90;;;;;;5118626;27;20050;-74
2022/08/01 02:07:45;;;;;;;14.82;4.13;;;16.70;99.90;;;;;;5153752;27;20043;-73
2022/08/01 02:10:12;;;;;;;10.38;4.05;;;16.90;99.90;;;;;;5153729;27;20052;-74
2022/08/01 02:12:41;;;;;;;13.45;4.85;;;16.70;99.90;;;;;;5135046;27;20533;-73
2022/08/01 02:15:09;;;;;;;17.33;5.57;;;16.80;99.90;;;;;;5153847;27;20489;-74
2022/08/01 02:17:41;;;;;;;15.30;4.82;;;16.80;99.90;;;;;;5153505;27;20057;-73
2022/08/01 02:20:07;;;;;;;13.20;5.32;;;16.90;99.90;;;;;;5153734;27;20126;-75
2022/08/01 02:22:53;;;;;;;25.98;5.65;;;16.90;99.90;;;;;;5153517;27;20051;-73
2022/08/01 02:25:49;;;;;;;17.70;6.20;;;16.60;99.90;;;;;;5152712;27;20031;-71
2022/08/01 02:28:25;;;;;;;25.10;5.38;;;16.70;99.90;;;;;;5151785;27;20050;-74
2022/08/01 02:30:50;;;;;;;24.92;5.32;;;16.80;99.90;;;;;;5153243;27;20053;-74
2022/08/01 02:33:19;;;;;;;15.20;4.75;;;16.70;99.90;;;;;;5153341;27;20050;-75
2022/08/01 02:35:49;;;;;;;25.35;5.05;;;16.70;99.90;;;;;;5153258;27;20078;-74
2022/08/01 02:38:18;;;;;;;13.40;4.22;;;16.70;99.90;;;;;;5153491;27;20085;-75
2022/08/01 02:40:46;;;;;;;16.30;4.25;;;16.80;99.90;;;;;;5153343;27;20490;-75
2022/08/01 02:43:13;;;;;;;19.05;4.05;;;16.70;99.90;;;;;;5153223;27;20076;-73
2022/08/01 02:45:43;;;;;;;18.92;4.47;;;16.80;99.90;;;;;;5153047;27;20493;-73
2022/08/01 02:48:15;;;;;;;19.90;4.68;;;16.70;99.90;;;;;;5153473;27;20062;-72
2022/08/01 02:50:43;;;;;;;21.17;4.25;;;17.00;99.90;;;;;;5153456;27;20058;-74
2022/08/01 02:53:12;;;;;;;14.52;3.92;;;16.70;99.90;;;;;;5152974;27;20046;-74
2022/08/01 02:55:44;;;;;;;15.10;4.07;;;16.90;99.90;;;;;;5153174;27;20090;-74
2022/08/01 02:58:13;;;;;;;18.75;5.10;;;16.20;99.90;;;;;;5134732;27;20047;-74
2022/08/01 03:00:41;;;;;;;21.27;5.03;;;16.60;99.90;;;;;;5153156;27;20078;-74
2022/08/01 03:03:08;;;;;;;19.92;4.45;;;16.60;99.90;;;;;;5153334;27;20050;-74
2022/08/01 03:05:35;;;;;;;21.23;4.35;;;16.50;99.90;;;;;;5153203;27;20038;-76
2022/08/01 03:08:01;;;;;;;23.45;4.35;;;17.00;99.90;;;;;;5117895;27;20142;-74
2022/08/01 03:10:29;;;;;;;17.77;3.58;;;16.40;99.90;;;;;;5134703;27;20057;-73
2022/08/01 03:12:57;;;;;;;19.88;4.40;;;16.60;99.90;;;;;;5152870;27;20047;-72
2022/08/01 03:15:24;;;;;;;16.23;3.80;;;16.30;99.90;;;;;;5152692;27;20034;-73
2022/08/01 03:17:52;;;;;;;13.90;3.75;;;16.20;99.90;;;;;;5153118;27;20045;-72
2022/08/01 03:20:19;;;;;;;20.23;4.68;;;16.50;99.90;;;;;;5153114;27;20043;-73
2022/08/01 03:22:47;;;;;;;23.60;5.60;;;16.60;99.90;;;;;;5153020;27;20095;-73
2022/08/01 03:25:14;;;;;;;21.55;4.57;;;16.50;99.90;;;;;;5134730;27;20039;-75
2022/08/01 03:27:43;;;;;;;17.00;4.82;;;16.30;99.90;;;;;;5152770;27;20099;-75
2022/08/01 03:30:10;;;;;;;14.68;3.90;;;16.30;99.90;;;;;;5152826;27;20534;-75
2022/08/01 03:32:36;;;;;;;17.77;4.05;;;16.40;99.90;;;;;;5152850;27;20441;-75
2022/08/01 03:35:01;;;;;;;;;;;16.40;99.90;;;;;;5153293;27;20047;-75
2022/08/01 03:37:34;;;;;;;17.58;4.65;;;16.40;99.90;;;;;;5156884;27;20013;-74
2022/08/01 03:40:12;;;;;;;24.73;5.07;;;16.10;99.90;;;;;;5156737;27;20038;-75
2022/08/01 03:42:44;;;;;;;23.35;4.40;;;16.20;99.90;;;;;;5156811;27;20039;-75
2022/08/01 03:45:15;;;;;;;17.00;3.92;;;16.30;99.90;;;;;;5156324;27;20047;-75
2022/08/01 03:47:43;;;;;;;20.45;3.95;;;16.20;99.90;;;;;;5156579;27;20082;-75
2022/08/01 03:50:11;;;;;;;27.50;3.97;;;16.10;99.90;;;;;;5156553;27;20051;-75
2022/08/01 03:52:41;;;;;;;29.85;4.10;;;16.10;99.90;;;;;;5156171;27;20829;-75
2022/08/01 03:55:07;;;;;;;18.80;4.05;;;16.10;99.90;;;;;;5137667;27;20051;-75
2022/08/01 03:57:34;;;;;;;;;;;16.00;99.90;;;;;;5156377;27;20078;-75
2022/08/01 04:00:00;;;;;;;13.85;3.38;;;16.00;99.90;;;;;;5156347;27;19919;-76
2022/08/01 04:02:29;;;;;;;19.67;3.97;;;15.90;99.90;;;;;;5156219;27;20133;-75
2022/08/01 04:04:55;;;;;;;26.13;3.88;;;15.60;99.90;;;;;;5156040;27;20042;-75
2022/08/01 04:07:21;;;;;;;;;;;15.70;99.90;;;;;;5156467;27;20517;-75
2022/08/01 04:09:47;;;;;;;22.38;4.25;;;15.80;99.90;;;;;;5156406;27;19929;-77
2022/08/01 04:12:12;;;;;;;;;;;15.70;99.90;;;;;;5156350;27;20047;-76
2022/08/01 04:14:38;;;;;;;16.92;3.17;;;15.90;99.90;;;;;;5155868;27;19978;-75
2022/08/01 04:17:04;;;;;;;;;;;15.90;99.90;;;;;;5137871;27;20057;-76
2022/08/01 04:19:30;;;;;;;18.48;3.75;;;15.90;99.90;;;;;;5155692;27;20354;-75
2022/08/01 04:21:56;;;;;;;;;;;16.00;99.90;;;;;;5156548;27;20049;-76
2022/08/01 04:24:23;;;;;;;23.05;3.67;;;16.20;99.90;;;;;;5155719;27;19972;-77
2022/08/01 04:26:50;;;;;;;22.35;3.53;;;16.10;99.90;;;;;;5155503;27;20034;-75
2022/08/01 04:29:18;;;;;;;22.33;4.25;;;16.20;99.90;;;;;;5155837;27;20053;-76
2022/08/01 04:31:47;;;;;;;26.88;3.65;;;15.80;99.90;;;;;;5155624;27;20042;-76
2022/08/01 04:34:16;;;;;;;22.73;3.47;;;15.90;99.90;;;;;;5137089;27;20103;-76
2022/08/01 04:36:44;;;;;;;23.63;4.03;;;15.90;99.90;;;;;;5155581;27;20043;-74
2022/08/01 04:39:10;;;;;;;34.80;4.55;;;16.10;99.90;;;;;;5155646;27;20486;-75
2022/08/01 04:41:38;;;;;;;21.23;4.10;;;15.90;99.90;;;;;;5155173;27;20133;-75
2022/08/01 04:44:04;;;;;;;22.95;4.93;;;15.00;99.90;;;;;;5155504;27;20057;-74
2022/08/01 04:46:32;;;;;;;26.23;3.80;;;15.80;99.90;;;;;;5155075;27;20406;-75
2022/08/01 04:49:00;;;;;;;20.13;4.00;;;15.80;99.90;;;;;;5154302;27;20463;-76
2022/08/01 04:51:25;;;;;;;16.42;3.72;;;16.10;99.90;;;;;;5155532;27;20085;-77
2022/08/01 04:53:51;;;;;;;;;;;15.90;99.90;;;;;;5155744;27;20089;-77
2022/08/01 04:56:18;;;;;;;22.83;4.30;;;16.10;99.90;;;;;;5154993;27;19919;-77
2022/08/01 04:58:44;;;;;;;18.30;4.05;;;16.30;99.90;;;;;;5136847;27;20443;-76
2022/08/01 05:01:10;;;;;;;;;;;15.80;99.90;;;;;;5155537;27;20046;-75
2022/08/01 05:03:37;;;;;;;20.75;3.65;;;15.90;99.90;;;;;;5154936;27;19934;-76
2022/08/01 05:06:02;;;;;;;21.02;3.58;;;15.70;99.90;;;;;;5155101;27;20062;-75
2022/08/01 05:08:28;;;;;;;;;;;16.20;99.90;;;;;;5155576;27;20513;-76
2022/08/01 05:10:54;;;;;;;20.80;3.65;;;16.10;99.90;;;;;;5154556;27;19919;-77
2022/08/01 05:13:19;;;;;;;;;;;15.80;99.90;;;;;;5155328;27;20039;-77
2022/08/01 05:15:45;;;;;;;17.80;3.88;;;15.90;99.90;;;;;;5154575;27;20357;-77
2022/08/01 05:18:11;;;;;;;;;;;16.20;99.90;;;;;;5155426;27;20050;-75
2022/08/01 05:20:37;;;;;;;18.52;3.67;;;16.00;99.90;;;;;;5154706;27;20038;-76
2022/08/01 05:23:04;;;;;;;28.25;4.75;;;16.20;99.90;;;;;;5154855;27;20827;-77
2022/08/01 05:25:31;;;;;;;21.85;4.43;;;16.00;99.90;;;;;;5154280;27;20069;-76
2022/08/01 05:27:57;;;;;;;21.75;5.22;;;15.90;99.90;;;;;;5154742;27;20051;-73
2022/08/01 05:30:23;;;;;;;;;;;16.20;99.90;;;;;;5155166;27;20130;-76
2022/08/01 05:32:48;;;;;;;22.10;4.07;;;15.80;99.90;;;;;;5154621;27;19987;-74
2022/08/01 05:35:14;;;;;;;;;;;15.90;99.90;;;;;;5136515;27;20035;-75
2022/08/01 05:37:40;;;;;;;18.48;3.85;;;16.20;99.90;;;;;;5154374;27;20006;-75
2022/08/01 05:40:05;;;;;;;;;;;15.90;99.90;;;;;;5154498;27;20115;-77
2022/08/01 05:42:31;;;;;;;19.45;3.88;;;16.20;99.90;;;;;;5154228;27;19974;-76
2022/08/01 05:44:57;;;;;;;;;;;16.10;99.90;;;;;;5154483;27;20035;-75
2022/08/01 05:47:23;;;;;;;15.40;3.83;;;16.20;99.90;;;;;;5154580;27;19948;-76
2022/08/01 05:49:48;;;;;;;;;;;16.10;99.90;;;;;;5154622;27;20129;-78
2022/08/01 05:52:14;;;;;;;20.98;3.65;;;16.10;99.90;;;;;;5135898;27;20026;-76
2022/08/01 05:54:40;;;;;;;;;;;16.20;99.90;;;;;;5135441;27;20118;-76
2022/08/01 05:57:06;;;;;;;20.52;3.30;;;16.50;99.90;;;;;;5135493;27;19919;-76
2022/08/01 05:59:32;;;;;;;;;;;16.30;99.90;;;;;;5154098;27;20038;-74
2022/08/01 06:01:57;;;;;;;14.15;2.72;;;16.20;99.90;;;;;;5135612;27;20366;-75
2022/08/01 06:04:23;;;;;;;;;;;16.30;99.90;;;;;;5154258;27;20170;-75
2022/08/01 06:06:49;;;;;;;22.23;3.08;;;16.30;99.90;;;;;;5153855;27;19930;-73
2022/08/01 06:09:14;;;;;;;;;;;16.30;99.90;;;;;;5154031;27;20043;-74
2022/08/01 06:11:40;;;;;;;17.70;3.20;;;16.40;99.90;;;;;;5153683;27;19923;-76
2022/08/01 06:14:06;;;;;;;;;;;16.40;99.90;;;;;;5154086;27;20042;-75
2022/08/01 06:16:31;;;;;;;14.73;2.80;;;16.20;99.90;;;;;;5153430;27;19926;-75
2022/08/01 06:18:57;;;;;;;;;;;16.50;99.90;;;;;;5154048;27;20064;-74
2022/08/01 06:21:23;;;;;;;12.52;3.95;;;16.30;99.90;;;;;;5153470;27;19922;-75
2022/08/01 06:23:48;;;;;;;;;;;16.50;99.90;;;;;;5153733;27;20127;-77
2022/08/01 06:26:17;;;;;;;17.25;3.55;;;16.20;99.90;;;;;;5153436;27;19927;-77
2022/08/01 06:28:43;;;;;;;22.60;3.05;;;16.30;99.90;;;;;;5153463;27;20129;-78
2022/08/01 06:31:11;;;;;;;;;;;16.50;99.90;;;;;;5135527;27;20138;-76
2022/08/01 06:33:37;;;;;;;20.25;3.70;;;16.70;99.90;;;;;;5151544;27;20307;-76
2022/08/01 06:36:02;;;;;;;;;;;16.40;99.90;;;;;;5139731;27;20080;-77
2022/08/01 06:38:28;;;;;;;15.32;2.78;;;17.00;99.90;;;;;;5132509;28;19926;-78
2022/08/01 06:40:54;;;;;;;;;;;16.80;99.90;;;;;;5133107;28;20043;-79
2022/08/01 06:43:19;;;;;;;13.32;2.67;;;16.60;99.90;;;;;;5132589;28;19919;-76
2022/08/01 06:45:45;;;;;;;;;;;17.10;99.90;;;;;;5133064;28;20046;-77
2022/08/01 06:48:11;;;;;;;12.27;2.30;;;17.00;99.90;;;;;;5132531;28;20331;-73
2022/08/01 06:50:36;;;;;;;;;;;16.90;99.90;;;;;;5133257;28;20105;-78
2022/08/01 06:53:02;;;;;;;20.92;3.15;;;17.00;99.90;;;;;;5132354;28;19956;-76
2022/08/01 06:55:28;;;;;;;;;;;16.60;99.90;;;;;;5090579;28;20059;-78
2022/08/01 07:05:09;;;;;;;20.55;3.50;;;16.50;99.90;;;;;;5131254;27;20116;-75
2022/08/01 07:07:34;;;;;;;14.13;2.40;;;17.10;99.90;;;;;;5125536;28;20051;-76
2022/08/01 07:10:00;;;;;;;;;;;17.00;99.90;;;;;;5128717;28;20043;-76
2022/08/01 07:12:26;;;;;;;18.73;2.92;;;17.10;99.90;;;;;;5128493;28;19920;-71
2022/08/01 07:14:51;;;;;;;;;;;16.80;99.90;;;;;;5128664;28;20043;-74
2022/08/01 07:17:17;;;;;;;15.13;2.40;;;17.40;99.90;;;;;;5124884;28;20352;-71
2022/08/01 07:19:42;;;;;;;;;;;17.40;99.90;;;;;;5128719;28;20051;-68
2022/08/01 07:22:08;;;;;;;11.77;2.42;;;17.40;99.90;;;;;;5128506;28;19965;-71
2022/08/01 07:24:34;;;;;;;;;;;17.10;99.90;;;;;;5110102;28;20048;-71
2022/08/01 07:26:59;;;;;;;7.80;1.83;;;17.40;99.90;;;;;;5123551;28;20382;-72
2022/08/01 07:29:25;;;;;;;;;;;17.10;99.90;;;;;;5128616;28;20082;-72
2022/08/01 07:31:53;;;;;;;13.98;3.00;;;17.10;99.90;;;;;;5127828;28;20348;-70
2022/08/01 07:34:19;;;;;;;17.55;2.33;;;17.10;99.90;;;;;;5128343;28;20044;-69
2022/08/01 07:36:44;;;;;;;;;;;17.50;99.90;;;;;;5119238;28;20502;-73
2022/08/01 07:39:10;;;;;;;13.60;2.33;;;17.60;99.90;;;;;;5127287;28;20382;-70
2022/08/01 07:41:36;;;;;;;;;;;17.30;99.90;;;;;;5110007;28;20555;-72
2022/08/01 07:44:01;;;;;;;8.23;1.88;;;17.70;99.90;;;;;;5127609;28;19919;-70
2022/08/01 07:46:27;;;;;;;;;;;17.90;99.90;;;;;;5126564;28;20053;-69
2022/08/01 07:48:52;;;;;;;14.73;2.10;;;17.90;99.90;;;;;;5127872;28;19920;-69
2022/08/01 07:51:18;;;;;;;;;;;17.90;99.90;;;;;;5119625;28;20051;-69
2022/08/01 07:53:44;;;;;;;21.73;2.60;;;18.20;99.90;;;;;;5127519;28;20381;-70
2022/08/01 07:56:09;;;;;;;;;;;18.00;99.90;;;;;;5121526;28;20051;-72
2022/08/01 07:58:35;;;;;;;12.43;2.20;;;18.00;99.90;;;;;;5109488;28;20018;-70
2022/08/01 08:01:02;;;;;;;8.88;2.00;;;17.60;99.90;;;;;;5127742;28;20051;-74
2022/08/01 08:03:27;;;;;;;13.90;2.35;;;17.80;99.90;;;;;;5127148;28;20146;-69
2022/08/01 08:05:53;;;;;;;;;;;17.80;99.90;;;;;;5126274;28;20464;-71
2022/08/01 08:08:19;;;;;;;7.70;2.10;;;17.70;99.90;;;;;;5125882;28;20444;-70
2022/08/01 08:10:44;;;;;;;;;;;17.90;99.90;;;;;;5127277;28;20047;-75
2022/08/01 08:13:10;;;;;;;12.68;2.75;;;17.70;99.90;;;;;;5127362;28;19927;-70
2022/08/01 08:15:36;;;;;;;11.77;1.98;;;17.70;99.90;;;;;;5118978;28;20051;-70
2022/08/01 08:18:02;;;;;;;;;;;18.10;99.90;;;;;;5107010;28;20048;-80
2022/08/01 08:20:29;;;;;;;11.25;1.95;;;18.20;99.90;;;;;;5092679;28;20284;-72
2022/08/01 08:22:55;;;;;;;9.38;2.75;;;18.00;99.90;;;;;;5093125;28;20070;-70
2022/08/01 08:25:21;;;;;;;13.77;3.03;;;18.00;99.90;;;;;;5094565;28;20063;-70
2022/08/01 08:27:48;;;;;;;10.52;1.92;;;17.90;99.90;;;;;;5091669;28;20055;-70
2022/08/01 08:30:14;;;;;;;11.38;1.80;;;18.10;99.90;;;;;;5110167;28;20039;-76
2022/08/01 08:32:39;;;;;;;;;;;18.10;99.90;;;;;;5109967;28;20199;-71
2022/08/01 08:35:06;;;;;;;8.95;2.25;;;18.30;99.90;;;;;;5112495;28;20406;-70
2022/08/01 08:37:32;;;;;;;11.05;2.28;;;18.40;99.90;;;;;;5112980;28;20043;-71
2022/08/01 08:39:58;;;;;;;11.68;1.98;;;18.70;99.90;;;;;;5111262;28;20047;-65
2022/08/01 08:42:24;;;;;;;9.55;2.10;;;18.60;99.90;;;;;;5112578;28;20069;-72
2022/08/01 08:44:50;;;;;;;10.70;1.88;;;18.90;99.90;;;;;;5112654;28;20091;-76
2022/08/01 08:47:16;;;;;;;;;;;19.00;99.90;;;;;;5113012;28;20087;-79
2022/08/01 08:49:43;;;;;;;10.23;2.20;;;19.00;99.90;;;;;;5113786;28;19943;-68
2022/08/01 08:52:10;;;;;;;8.70;1.92;;;19.10;99.90;;;;;;5114195;28;20048;-68
2022/08/01 08:54:38;;;;;;;8.05;1.95;;;18.80;99.90;;;;;;5114432;28;20073;-67
2022/08/01 08:57:05;;;;;;;7.97;1.70;;;19.10;99.90;;;;;;5113827;28;20058;-66
2022/08/01 08:59:31;;;;;;;16.77;2.58;;;19.30;99.90;;;;;;5114476;28;20067;-67
2022/08/01 09:01:58;;;;;;;9.88;2.03;;;19.60;99.90;;;;;;5113656;28;20384;-73
2022/08/01 09:04:24;;;;;;;10.15;2.10;;;19.80;99.90;;;;;;5113724;28;20060;-65
2022/08/01 09:06:50;;;;;;;12.32;1.90;;;19.50;99.90;;;;;;5113923;28;20589;-65
2022/08/01 09:09:16;;;;;;;9.65;1.70;;;18.90;99.90;;;;;;5113911;28;20047;-68
2022/08/01 09:11:42;;;;;;;10.43;1.90;;;19.00;99.90;;;;;;5114036;28;20085;-69
2022/08/01 09:14:11;;;;;;;10.30;2.08;;;18.70;99.90;;;;;;5114118;28;20039;-69
2022/08/01 09:16:43;;;;;;;10.77;1.90;;;19.10;99.90;;;;;;5113458;28;20047;-66
2022/08/01 09:19:18;;;;;;;6.00;2.00;;;19.40;99.90;;;;;;5113977;28;20106;-67
2022/08/01 09:21:59;;;;;;;8.25;2.08;;;19.30;99.90;;;;;;5114051;28;20043;-65
2022/08/01 09:24:30;;;;;;;14.60;2.13;;;19.00;99.90;;;;;;5113673;28;20119;-65
2022/08/01 09:26:56;;;;;;;10.80;2.08;;;18.90;99.90;;;;;;5112494;28;20608;-63
2022/08/01 09:29:29;;;;;;;7.53;1.98;;;19.00;99.90;;;;;;5113781;28;20051;-69
2022/08/01 09:31:56;;;;;;;8.70;2.17;;;18.90;99.90;;;;;;5094792;28;20052;-65
2022/08/01 09:34:40;;;;;;;6.03;1.70;;;19.20;99.90;;;;;;5095482;28;20054;-69
2022/08/01 09:37:06;;;;;;;10.32;2.00;;;19.10;99.90;;;;;;5113486;28;20067;-66
2022/08/01 09:39:37;;;;;;;8.43;1.80;;;18.90;99.90;;;;;;5113442;28;20061;-67
2022/08/01 09:42:22;;;;;;;6.63;2.08;;;19.00;99.90;;;;;;5113441;28;20521;-67
2022/08/01 09:44:49;;;;;;;11.30;1.73;;;19.00;99.90;;;;;;5113030;28;20087;-75
2022/08/01 09:47:16;;;;;;;12.48;2.30;;;19.60;99.90;;;;;;5112998;28;20155;-66
2022/08/01 09:49:43;;;;;;;11.60;1.73;;;19.60;99.90;;;;;;5113213;28;20054;-67
2022/08/01 09:52:17;;;;;;;9.25;1.83;;;19.70;99.90;;;;;;5113389;28;20039;-67
2022/08/01 09:54:52;;;;;;;11.85;2.05;;;19.40;99.90;;;;;;5112860;28;20052;-67
2022/08/01 09:57:19;;;;;;;8.48;1.77;;;19.20;99.90;;;;;;5112857;28;20044;-70
2022/08/01 09:59:51;;;;;;;16.80;2.70;;;19.50;99.90;;;;;;5112588;28;20052;-68
2022/08/01 10:02:32;;;;;;;5.82;1.45;;;19.50;99.90;;;;;;5094594;28;20055;-68
2022/08/01 10:04:57;;;;;;;12.02;2.22;;;19.50;99.90;;;;;;5113204;28;20086;-65
2022/08/01 10:07:23;;;;;;;5.05;1.30;;;19.40;99.90;;;;;;5112706;28;20048;-65
2022/08/01 10:09:49;;;;;;;7.72;1.85;;;19.00;99.90;;;;;;5077798;28;20044;-66
2022/08/01 10:12:21;;;;;;;6.20;1.40;;;19.50;99.90;;;;;;5112833;28;20079;-66
2022/08/01 10:14:50;;;;;;;9.02;1.88;;;19.40;99.90;;;;;;5093696;28;20039;-65
2022/08/01 10:17:17;;;;;;;10.52;1.85;;;19.50;99.90;;;;;;5111841;28;20570;-67
2022/08/01 10:19:44;;;;;;;8.55;1.98;;;19.60;99.90;;;;;;5112454;28;20055;-67
2022/08/01 10:22:16;;;;;;;14.93;3.40;;;19.80;99.90;;;;;;5112458;28;20039;-68
2022/08/01 10:24:44;;;;;;;7.57;1.80;;;19.50;99.90;;;;;;5112011;28;20047;-68
2022/08/01 10:27:11;;;;;;;11.00;2.17;;;19.20;99.90;;;;;;5112440;28;20057;-65
2022/08/01 10:29:51;;;;;;;11.73;1.75;;;19.20;99.90;;;;;;5111760;28;20047;-66
2022/08/01 10:32:18;;;;;;;6.57;1.70;;;19.60;99.90;;;;;;5101802;28;20039;-70
2022/08/01 10:34:45;;;;;;;8.98;1.70;;;20.10;99.90;;;;;;5107835;28;20102;-69
2022/08/01 10:37:13;;;;;;;10.88;2.15;;;19.70;99.90;;;;;;5091871;28;20435;-69
2022/08/01 10:39:39;;;;;;;8.52;1.38;;;19.80;99.90;;;;;;5110039;28;20061;-78
2022/08/01 10:42:09;;;;;;;11.80;1.88;;;19.90;99.90;;;;;;5089018;28;20052;-68
2022/08/01 10:44:36;;;;;;;13.73;1.95;;;19.30;99.90;;;;;;5089542;28;20052;-66
2022/08/01 10:47:11;;;;;;;5.28;1.33;;;19.70;99.90;;;;;;5089785;28;20059;-69
2022/08/01 10:50:03;;;;;;;6.15;1.70;;;19.50;99.90;;;;;;5091823;28;20050;-66
2022/08/01 10:52:29;;;;;;;8.55;1.60;;;20.10;99.90;;;;;;5095311;28;20044;-66
2022/08/01 10:55:06;;;;;;;13.30;1.58;;;20.10;99.90;;;;;;5093486;28;20130;-66
2022/08/01 10:57:46;;;;;;;8.02;1.60;;;19.60;99.90;;;;;;5091759;28;20056;-70
2022/08/01 11:00:20;;;;;;;7.00;1.75;;;19.30;99.90;;;;;;5091488;28;20453;-70
2022/08/01 11:03:01;;;;;;;6.15;1.40;;;19.40;99.90;;;;;;5091832;28;20056;-67
2022/08/01 11:05:30;;;;;;;9.35;1.42;;;19.90;99.90;;;;;;5091687;28;20526;-64
2022/08/01 11:08:00;;;;;;;7.47;1.52;;;19.70;99.90;;;;;;5091632;28;20059;-66
2022/08/01 11:11:01;;;;;;;10.20;1.85;;;19.60;99.90;;;;;;5089594;28;20461;-66
2022/08/01 11:13:58;;;;;;;8.57;1.50;;;19.90;99.90;;;;;;5084096;28;20055;-67
2022/08/01 11:16:28;;;;;;;12.23;1.80;;;20.00;99.90;;;;;;5106609;28;20058;-68
2022/08/01 11:18:54;;;;;;;7.65;1.73;;;19.60;99.90;;;;;;5102537;28;20135;-66
2022/08/01 11:21:23;;;;;;;8.68;1.70;;;19.30;99.90;;;;;;5110365;28;20063;-74
2022/08/01 11:23:54;;;;;;;7.40;1.70;;;19.10;99.90;;;;;;5110331;28;20056;-67
2022/08/01 11:26:20;;;;;;;10.38;1.45;;;19.20;99.90;;;;;;5105810;28;20388;-66
2022/08/01 11:29:16;;;;;;;7.88;1.42;;;19.90;99.90;;;;;;5108814;28;20147;-66
2022/08/01 11:31:42;;;;;;;7.97;1.63;;;20.10;99.90;;;;;;5108416;28;20058;-66
2022/08/01 11:34:08;;;;;;;10.65;1.60;;;20.40;99.90;;;;;;5109791;28;20044;-68
2022/08/01 11:36:34;;;;;;;13.32;1.88;;;20.60;99.90;;;;;;5100359;28;20769;-67
2022/08/01 11:39:00;;;;;;;9.30;1.52;;;20.10;99.90;;;;;;5091224;28;20080;-67
2022/08/01 11:41:25;;;;;;;10.35;2.17;;;19.80;99.90;;;;;;5091153;28;20509;-68
2022/08/01 11:43:54;;;;;;;6.55;1.30;;;19.80;99.90;;;;;;5090998;28;20583;-66
2022/08/01 11:46:20;;;;;;;11.68;1.63;;;19.70;99.90;;;;;;5091440;28;20051;-66
2022/08/01 11:49:05;;;;;;;8.63;1.60;;;19.90;99.90;;;;;;5091442;28;20052;-67
2022/08/01 11:51:32;;;;;;;6.72;1.52;;;19.70;99.90;;;;;;5075937;28;20480;-66
2022/08/01 11:53:58;;;;;;;7.53;1.63;;;19.80;99.90;;;;;;5086557;28;20500;-69
2022/08/01 11:56:24;;;;;;;5.40;1.67;;;20.00;99.90;;;;;;5115019;28;20055;-65
2022/08/01 11:58:59;;;;;;;5.70;1.70;;;20.10;99.90;;;;;;5115428;28;20036;-66
2022/08/01 12:01:26;;;;;;;8.90;1.60;;;20.00;99.90;;;;;;5097320;28;20047;-66
2022/08/01 12:03:56;;;;;;;10.75;1.50;;;19.90;99.90;;;;;;5115213;28;20059;-66
2022/08/01 12:06:28;;;;;;;8.45;1.65;;;20.30;99.90;;;;;;5115250;28;20108;-66
2022/08/01 12:08:54;;;;;;;6.47;1.02;;;20.60;99.90;;;;;;5114972;28;20048;-68
2022/08/01 12:11:20;;;;;;;10.40;1.95;;;21.20;99.90;;;;;;5115064;28;20050;-67
2022/08/01 12:13:46;;;;;;;6.38;1.70;;;21.20;99.90;;;;;;5114910;28;20412;-67
2022/08/01 12:16:13;;;;;;;3.35;1.58;;;21.10;99.90;;;;;;5097176;28;20782;-66
2022/08/01 12:18:42;;;;;;;9.32;1.67;;;21.10;99.90;;;;;;5115032;28;20047;-67
2022/08/01 12:21:09;;;;;;;9.10;1.48;;;21.00;99.90;;;;;;5114885;28;20051;-70
2022/08/01 12:23:34;;;;;;;5.18;1.40;;;20.60;99.90;;;;;;5114760;28;20040;-67
2022/08/01 12:26:01;;;;;;;4.32;1.17;;;20.90;99.90;;;;;;5114914;28;20402;-66
2022/08/01 12:28:27;;;;;;;4.88;1.50;;;21.00;99.90;;;;;;5115028;28;20051;-66
2022/08/01 12:30:53;;;;;;;7.80;1.52;;;21.10;99.90;;;;;;5114205;28;20457;-66
2022/08/01 12:33:20;;;;;;;9.82;1.65;;;20.90;99.90;;;;;;5114421;28;20054;-66
2022/08/01 12:35:46;;;;;;;6.30;1.95;;;20.70;99.90;;;;;;5114599;28;20055;-68
2022/08/01 12:38:18;;;;;;;9.10;1.33;;;21.00;99.90;;;;;;5114680;28;20039;-66
2022/08/01 12:40:46;;;;;;;5.28;1.40;;;21.30;99.90;;;;;;5114634;28;20039;-69
2022/08/01 12:43:20;;;;;;;4.47;1.30;;;21.40;99.90;;;;;;5114456;28;20050;-67
2022/08/01 12:45:49;;;;;;;4.72;1.23;;;21.50;99.90;;;;;;5114606;28;20051;-67
2022/08/01 12:48:16;;;;;;;5.50;2.22;;;20.60;99.90;;;;;;5114460;28;20090;-66
2022/08/01 12:50:47;;;;;;;5.57;1.40;;;20.60;99.90;;;;;;5114595;28;20368;-66
2022/08/01 12:53:14;;;;;;;10.30;1.67;;;20.30;99.90;;;;;;5114937;28;20050;-67
2022/08/01 12:55:49;;;;;;;9.02;2.08;;;21.30;99.90;;;;;;5114080;28;20097;-65
2022/08/01 12:58:16;;;;;;;5.57;1.60;;;20.50;99.90;;;;;;5114563;28;20044;-67
2022/08/01 13:00:45;;;;;;;8.63;1.80;;;20.40;99.90;;;;;;5113889;28;20104;-72
2022/08/01 13:03:14;;;;;;;7.28;1.70;;;20.30;99.90;;;;;;5113731;28;20387;-68
2022/08/01 13:05:48;;;;;;;9.07;1.60;;;20.20;99.90;;;;;;5114091;28;20134;-69